Time;durP1;ratioP1;P1;durP2;ratioP2;P2;SDS_P1;SDS_P2;PMS_P1;PMS_P2;Temp;Humidity;BMP_temperature;BMP_pressure;BME280_temperature;BME280_humidity;BME280_pressure;Samples;Min_cycle;Max_cycle;Signal;HPM_P1;HPM_P2
2022/05/16 00:01:19;;;;;;;3.08;2.08;;;;;;;15.57;82.47;95841.34;4997899;28;24498;-72
2022/05/16 00:03:46;;;;;;;6.97;2.33;;;;;;;15.48;83.48;95842.09;5013748;28;24432;-72
2022/05/16 00:06:13;;;;;;;3.13;2.05;;;;;;;15.47;83.70;95840.44;5013558;28;24822;-72
2022/05/16 00:08:39;;;;;;;2.60;2.20;;;;;;;15.49;83.13;95848.97;5013650;28;25147;-71
2022/05/16 00:11:06;;;;;;;2.83;2.00;;;;;;;15.45;82.92;95837.13;5013305;28;24444;-72
2022/05/16 00:13:32;;;;;;;2.38;1.88;;;;;;;15.44;82.68;95840.69;5013353;28;24436;-72
2022/05/16 00:16:00;;;;;;;6.85;2.30;;;;;;;15.38;83.59;95846.41;5013484;28;24559;-72
2022/05/16 00:18:27;;;;;;;3.63;2.30;;;;;;;15.35;83.58;95834.44;5013400;28;24965;-73
2022/05/16 00:20:53;;;;;;;4.57;2.58;;;;;;;15.30;85.39;95827.94;5013437;28;24436;-72
2022/05/16 00:23:20;;;;;;;5.80;2.40;;;;;;;15.25;84.98;95829.13;5012886;28;24460;-72
2022/05/16 00:25:46;;;;;;;9.55;2.42;;;;;;;15.17;85.62;95821.09;5013318;28;24436;-73
2022/05/16 00:28:12;;;;;;;2.63;2.10;;;;;;;15.03;85.54;95829.19;5013426;28;24453;-72
2022/05/16 00:30:39;;;;;;;5.78;2.50;;;;;;;14.75;88.25;95828.75;5013221;28;24996;-73
2022/05/16 00:33:07;;;;;;;4.03;2.40;;;;;;;14.76;88.52;95830.44;5012993;28;24835;-72
2022/05/16 00:35:33;;;;;;;3.55;2.17;;;;;;;14.90;87.38;95823.28;5013018;28;24536;-73
2022/05/16 00:38:00;;;;;;;2.58;1.83;;;;;;;15.05;85.99;95824.66;5013095;28;24483;-72
2022/05/16 00:40:26;;;;;;;6.30;2.25;;;;;;;15.10;85.46;95812.09;5012981;28;24439;-72
2022/05/16 00:43:02;;;;;;;5.10;2.25;;;;;;;14.98;86.25;95816.53;5013161;28;24439;-72
2022/05/16 00:45:28;;;;;;;3.65;2.20;;;;;;;14.73;89.07;95820.22;5012824;28;24440;-72
2022/05/16 00:47:55;;;;;;;4.80;1.95;;;;;;;14.73;88.83;95824.63;5012992;28;24455;-72
2022/05/16 00:50:23;;;;;;;3.85;2.20;;;;;;;14.74;88.90;95816.66;5012808;28;24432;-72
2022/05/16 00:52:52;;;;;;;4.20;2.40;;;;;;;14.72;88.43;95815.97;5010994;28;24444;-70
2022/05/16 00:55:22;;;;;;;6.75;2.63;;;;;;;14.83;87.89;95830.78;5012819;28;24447;-73
2022/05/16 00:57:50;;;;;;;4.57;2.53;;;;;;;14.84;88.83;95815.97;5011735;28;24437;-73
2022/05/16 01:00:21;;;;;;;3.75;2.20;;;;;;;14.68;88.80;95811.97;5012702;28;24440;-72
2022/05/16 01:05:38;;;;;;;4.47;2.33;;;;;;;14.64;88.10;95807.91;5012428;28;24424;-72
2022/05/16 01:08:09;;;;;;;3.33;2.37;;;;;;;14.80;88.06;95814.56;5012624;28;24448;-72
2022/05/16 01:10:36;;;;;;;6.93;2.60;;;;;;;14.88;87.56;95807.78;5012431;28;24444;-72
2022/05/16 01:13:04;;;;;;;3.92;2.25;;;;;;;14.86;88.42;95814.88;5012033;28;24436;-72
2022/05/16 01:15:32;;;;;;;3.13;2.13;;;;;;;14.81;88.21;95809.19;5003093;28;24437;-72
2022/05/16 01:17:59;;;;;;;3.95;1.88;;;;;;;14.84;88.00;95803.75;4992905;28;25133;-72
2022/05/16 01:20:43;;;;;;;2.58;1.92;;;;;;;14.87;86.93;95800.91;5010648;28;24443;-72
2022/05/16 01:23:13;;;;;;;4.03;2.38;;;;;;;14.86;85.98;95799.22;5012219;28;24542;-72
2022/05/16 01:25:39;;;;;;;2.00;1.80;;;;;;;14.92;85.83;95800.53;5012549;28;24424;-73
2022/05/16 01:28:06;;;;;;;3.70;2.20;;;;;;;14.95;85.68;95798.50;5012073;28;24479;-72
2022/05/16 01:30:38;;;;;;;2.83;2.00;;;;;;;14.96;85.59;95787.13;5011999;28;24536;-72
2022/05/16 01:33:05;;;;;;;2.60;2.20;;;;;;;15.07;86.42;95785.44;5011737;28;25053;-70
2022/05/16 01:35:32;;;;;;;7.03;2.15;;;;;;;14.68;87.15;95780.69;5012246;28;24838;-70
2022/05/16 01:40:46;;;;;;;4.63;2.28;;;;;;;14.19;91.69;95778.41;5011601;28;24596;-70
2022/05/16 01:43:13;;;;;;;3.00;2.00;;;;;;;14.14;91.79;95773.56;5011694;28;24494;-70
2022/05/16 01:45:42;;;;;;;3.28;2.10;;;;;;;14.26;91.35;95779.59;5011702;28;24443;-70
2022/05/16 01:48:10;;;;;;;3.97;2.15;;;;;;;14.28;91.24;95778.53;5011906;28;24551;-70
2022/05/16 01:50:37;;;;;;;4.53;2.38;;;;;;;14.16;93.03;95774.25;5011352;28;25036;-70
2022/05/16 01:53:03;;;;;;;2.35;2.05;;;;;;;14.14;93.40;95767.53;5011435;28;24524;-73
2022/05/16 01:55:30;;;;;;;2.88;2.28;;;;;;;14.16;93.72;95773.44;5011678;28;24992;-70
2022/05/16 01:57:58;;;;;;;3.75;2.30;;;;;;;14.21;94.06;95776.53;5011757;28;24487;-70
2022/05/16 02:00:25;;;;;;;3.07;2.10;;;;;;;14.25;95.00;95770.97;5011337;28;24444;-69
2022/05/16 02:02:51;;;;;;;11.80;2.38;;;;;;;14.32;93.91;95767.88;5011125;28;25041;-70
2022/05/16 02:05:21;;;;;;;2.83;2.27;;;;;;;14.38;92.71;95763.00;5011578;28;24439;-70
2022/05/16 02:07:48;;;;;;;6.00;2.70;;;;;;;14.52;91.71;95764.56;5011309;28;24440;-70
2022/05/16 02:10:16;;;;;;;3.33;2.35;;;;;;;14.30;92.59;95768.00;5011392;28;25004;-70
2022/05/16 02:12:43;;;;;;;3.25;2.35;;;;;;;14.26;94.00;95756.16;5011262;28;24455;-70
2022/05/16 02:15:14;;;;;;;5.18;2.33;;;;;;;14.27;94.35;95755.19;5011012;28;24436;-70
2022/05/16 02:17:40;;;;;;;4.43;2.20;;;;;;;14.32;93.98;95763.50;5011449;28;24436;-70
2022/05/16 02:20:08;;;;;;;3.03;1.88;;;;;;;14.35;94.05;95762.41;5011202;28;25058;-70
2022/05/16 02:25:20;;;;;;;6.32;2.10;;;;;;;14.40;94.79;95763.72;5011182;28;24447;-71
2022/05/16 02:27:47;;;;;;;4.50;2.22;;;;;;;14.41;94.75;95767.16;5011118;28;24978;-71
2022/05/16 02:30:15;;;;;;;3.03;2.05;;;;;;;14.40;94.66;95763.72;5010955;28;24822;-70
2022/05/16 02:32:42;;;;;;;3.33;2.30;;;;;;;14.57;93.45;95775.44;5011190;28;24452;-70
2022/05/16 02:35:10;;;;;;;3.35;2.08;;;;;;;14.23;96.30;95774.63;5010842;28;24444;-70
2022/05/16 02:37:37;;;;;;;4.13;2.25;;;;;;;14.18;97.67;95772.38;5011122;28;24432;-70
2022/05/16 02:40:03;;;;;;;4.03;2.03;;;;;;;14.17;97.78;95775.94;5010987;28;25004;-70
2022/05/16 02:42:30;;;;;;;3.72;2.30;;;;;;;14.14;98.03;95778.78;5010333;28;24997;-70
2022/05/16 02:44:57;;;;;;;2.70;2.17;;;;;;;14.20;96.98;95775.69;4994937;28;24495;-70
2022/05/16 02:47:24;;;;;;;3.35;2.30;;;;;;;14.33;96.92;95774.75;5010669;28;24850;-70
2022/05/16 02:49:51;;;;;;;3.20;2.20;;;;;;;14.18;98.77;95782.78;5010735;28;24506;-70
2022/05/16 02:52:18;;;;;;;3.45;2.47;;;;;;;14.08;99.25;95779.22;5010566;28;24460;-71
2022/05/16 02:54:45;;;;;;;4.67;2.40;;;;;;;14.11;99.55;95786.00;5010654;28;24483;-70
2022/05/16 02:57:11;;;;;;;4.70;2.50;;;;;;;14.06;100.00;95785.53;5010369;28;24436;-70
2022/05/16 02:59:38;;;;;;;3.53;2.33;;;;;;;14.04;99.41;95788.22;5010481;28;24435;-71
2022/05/16 03:02:08;;;;;;;4.13;2.47;;;;;;;14.00;100.00;95784.19;5010423;28;24463;-70
2022/05/16 03:04:37;;;;;;;3.25;2.03;;;;;;;14.08;100.00;95792.25;5010513;28;24444;-70
2022/05/16 03:07:04;;;;;;;7.78;2.30;;;;;;;14.16;99.88;95791.66;5008745;28;24511;-70
2022/05/16 03:09:32;;;;;;;3.85;2.42;;;;;;;14.15;99.47;95797.81;5010294;28;24452;-70
2022/05/16 03:11:59;;;;;;;4.70;2.65;;;;;;;13.93;100.00;95801.22;5009953;28;24540;-70
2022/05/16 03:14:26;;;;;;;3.58;2.40;;;;;;;13.83;100.00;95808.94;5009468;28;25020;-71
2022/05/16 03:16:52;;;;;;;2.42;1.95;;;;;;;14.01;100.00;95814.50;5010429;28;24442;-70
2022/05/16 03:19:19;;;;;;;3.88;2.45;;;;;;;14.06;100.00;95801.16;5010504;28;24448;-71
2022/05/16 03:21:47;;;;;;;3.08;2.20;;;;;;;14.14;99.97;95799.59;5010301;28;24436;-72
2022/05/16 03:24:13;;;;;;;5.00;2.75;;;;;;;14.03;100.00;95802.19;5009982;28;24475;-70
2022/05/16 03:26:40;;;;;;;4.60;2.60;;;;;;;14.19;100.00;95805.28;5009903;28;24986;-70
2022/05/16 03:29:07;;;;;;;3.60;2.38;;;;;;;14.37;99.11;95810.03;5010053;28;25176;-70
2022/05/16 03:31:34;;;;;;;2.53;2.22;;;;;;;14.59;98.35;95806.63;5010223;28;24447;-70
2022/05/16 03:34:01;;;;;;;4.55;2.45;;;;;;;14.46;100.00;95811.91;5009889;28;24842;-71
2022/05/16 03:36:27;;;;;;;2.65;2.33;;;;;;;14.43;100.00;95809.56;5010023;28;25035;-71
2022/05/16 03:41:39;;;;;;;2.75;2.00;;;;;;;14.52;100.00;95819.28;5004971;28;24450;-71
2022/05/16 03:44:06;;;;;;;4.35;2.72;;;;;;;14.20;100.00;95819.13;5008961;28;24436;-70
2022/05/16 03:46:32;;;;;;;4.13;2.50;;;;;;;14.07;100.00;95815.81;5009475;28;24443;-71
2022/05/16 03:48:58;;;;;;;5.00;2.63;;;;;;;13.96;100.00;95827.88;5009551;28;24539;-71
2022/05/16 03:51:25;;;;;;;4.07;2.60;;;;;;;13.98;100.00;95835.59;5009352;28;24839;-71
2022/05/16 03:53:51;;;;;;;3.22;2.30;;;;;;;13.83;100.00;95837.56;5009812;28;24444;-71
2022/05/16 03:56:21;;;;;;;3.05;2.25;;;;;;;13.92;100.00;95836.84;5009434;28;24989;-72
2022/05/16 03:58:48;;;;;;;4.88;2.17;;;;;;;14.07;100.00;95837.47;5010248;28;24435;-72
2022/05/16 04:01:15;;;;;;;5.10;2.42;;;;;;;14.20;100.00;95847.78;5009392;28;24456;-71
2022/05/16 04:03:42;;;;;;;5.07;2.08;;;;;;;14.27;100.00;95847.19;5009583;28;24476;-72
2022/05/16 04:06:09;;;;;;;3.78;2.50;;;;;;;14.31;100.00;95846.97;5010009;28;24495;-71
2022/05/16 04:08:36;;;;;;;3.17;2.23;;;;;;;14.38;100.00;95845.56;5009578;28;24440;-72
2022/05/16 04:11:04;;;;;;;3.10;2.25;;;;;;;14.43;100.00;95844.28;5009906;28;24506;-71
2022/05/16 04:13:33;;;;;;;4.53;2.40;;;;;;;14.52;100.00;95842.75;5008758;28;24464;-71
2022/05/16 04:15:59;;;;;;;3.92;2.30;;;;;;;14.56;100.00;95849.38;5009973;28;24531;-72
2022/05/16 04:18:26;;;;;;;4.40;2.30;;;;;;;14.58;100.00;95849.28;5009893;28;24520;-71
2022/05/16 04:20:52;;;;;;;6.47;2.30;;;;;;;14.60;100.00;95845.59;5009652;28;24528;-72
2022/05/16 04:23:19;;;;;;;2.72;2.35;;;;;;;14.66;100.00;95854.72;5009311;28;24822;-72
2022/05/16 04:25:46;;;;;;;4.75;2.15;;;;;;;14.69;100.00;95857.09;5010027;28;24527;-71
2022/05/16 04:28:13;;;;;;;3.25;2.28;;;;;;;14.75;100.00;95844.38;5013129;28;24438;-72
2022/05/16 04:30:41;;;;;;;4.00;2.38;;;;;;;14.79;100.00;95851.97;5012872;28;24997;-71
2022/05/16 04:33:08;;;;;;;3.58;2.15;;;;;;;14.86;100.00;95853.16;5013059;28;24436;-71
2022/05/16 04:35:36;;;;;;;3.78;2.67;;;;;;;14.83;100.00;95859.47;5012766;28;25035;-71
2022/05/16 04:38:03;;;;;;;4.28;2.28;;;;;;;14.89;100.00;95853.75;5013257;28;24534;-72
2022/05/16 04:40:29;;;;;;;3.63;2.28;;;;;;;14.87;100.00;95850.44;5013306;28;24428;-72
2022/05/16 04:42:55;;;;;;;5.25;2.30;;;;;;;14.91;100.00;95844.03;5012764;28;24440;-71
2022/05/16 04:45:24;;;;;;;2.97;2.17;;;;;;;14.94;100.00;95846.41;5012734;28;24996;-71
2022/05/16 04:47:54;;;;;;;2.30;1.95;;;;;;;14.96;100.00;95839.28;4997299;28;24490;-71
2022/05/16 04:50:24;;;;;;;5.68;2.30;;;;;;;14.99;99.52;95838.22;5013196;28;24632;-72
2022/05/16 04:52:51;;;;;;;4.85;2.35;;;;;;;14.96;98.76;95841.06;5012837;28;24498;-71
2022/05/16 04:55:19;;;;;;;3.25;2.33;;;;;;;14.96;99.64;95841.06;5012652;28;24494;-72
2022/05/16 04:57:45;;;;;;;2.95;2.45;;;;;;;14.99;99.88;95840.81;5012709;28;24448;-72
2022/05/16 05:00:14;;;;;;;5.75;2.50;;;;;;;14.98;98.35;95837.38;5012233;28;24433;-72
2022/05/16 05:02:41;;;;;;;4.18;2.45;;;;;;;15.07;97.13;95842.81;5012858;28;24432;-72
2022/05/16 05:05:09;;;;;;;3.72;2.13;;;;;;;15.07;100.00;95848.03;5010261;28;24436;-72
2022/05/16 05:07:36;;;;;;;3.00;2.10;;;;;;;15.03;100.00;95844.84;5008640;28;24437;-73
2022/05/16 05:15:31;;;;;;;3.08;2.30;;;;;;;15.04;100.00;95854.31;5002116;28;24883;-72
2022/05/16 05:17:58;;;;;;;3.63;2.40;;;;;;;15.00;100.00;95853.72;4997904;28;24475;-74
2022/05/16 05:20:26;;;;;;;5.30;2.03;;;;;;;15.09;100.00;95851.34;5018433;28;24428;-72
2022/05/16 05:22:52;;;;;;;3.58;2.38;;;;;;;15.21;100.00;95855.59;5013641;28;24440;-74
2022/05/16 05:25:20;;;;;;;3.00;2.20;;;;;;;15.25;100.00;95857.00;5013414;28;24444;-72
2022/05/16 05:27:48;;;;;;;2.42;2.22;;;;;;;15.29;100.00;95853.19;5020003;28;24440;-72
2022/05/16 05:30:18;;;;;;;3.28;2.30;;;;;;;15.32;100.00;95862.56;5012150;28;24478;-73
2022/05/16 05:32:46;;;;;;;3.42;2.40;;;;;;;15.33;100.00;95872.88;5011870;28;24491;-73
2022/05/16 05:35:13;;;;;;;3.92;2.42;;;;;;;15.40;100.00;95875.81;5011335;28;24443;-73
2022/05/16 05:37:42;;;;;;;3.20;2.42;;;;;;;15.44;98.51;95877.22;5011675;28;24432;-73
2022/05/16 05:40:10;;;;;;;5.40;2.60;;;;;;;15.55;97.43;95879.81;5011768;28;24460;-72
2022/05/16 05:42:38;;;;;;;3.58;2.72;;;;;;;15.62;96.24;95885.38;5011649;28;25032;-72
2022/05/16 05:45:07;;;;;;;5.03;2.55;;;;;;;15.72;98.06;95886.28;5010866;28;24443;-73
2022/05/16 05:47:33;;;;;;;4.38;2.55;;;;;;;15.81;97.79;95893.38;5011696;28;24841;-73
2022/05/16 05:50:01;;;;;;;3.90;2.45;;;;;;;15.87;96.03;95894.66;5011539;28;25002;-72
2022/05/16 05:52:29;;;;;;;9.95;3.00;;;;;;;16.02;97.33;95896.03;5011474;28;24459;-70
2022/05/16 05:54:57;;;;;;;16.13;3.90;;;;;;;15.94;93.95;95898.41;5011035;28;24476;-74
2022/05/16 05:57:25;;;;;;;7.65;3.35;;;;;;;15.99;94.73;95906.72;5011942;28;24806;-74
2022/05/16 05:59:51;;;;;;;6.22;3.42;;;;;;;16.06;94.72;95907.06;5011840;28;24865;-74
2022/05/16 06:02:18;;;;;;;7.90;4.10;;;;;;;16.15;95.12;95904.50;5011878;28;24448;-74
2022/05/16 06:04:45;;;;;;;8.63;3.58;;;;;;;16.21;95.11;95898.78;5010547;28;24439;-74
2022/05/16 06:07:11;;;;;;;10.63;3.67;;;;;;;16.20;93.64;95902.34;5010801;28;24969;-74
2022/05/16 06:09:38;;;;;;;9.57;3.70;;;;;;;16.25;93.45;95906.34;4972450;28;24461;-72
2022/05/16 06:12:07;;;;;;;8.02;3.70;;;;;;;16.26;94.33;95908.00;4972580;28;24441;-73
2022/05/16 06:14:36;;;;;;;5.87;3.47;;;;;;;16.34;95.53;95916.84;4972258;28;24441;-73
2022/05/16 06:17:03;;;;;;;8.43;3.55;;;;;;;16.20;92.58;95910.19;4971903;28;24808;-73
2022/05/16 06:19:29;;;;;;;8.50;3.80;;;;;;;16.26;92.72;95916.66;4972414;28;24480;-72
2022/05/16 06:21:56;;;;;;;4.77;3.00;;;;;;;16.30;93.58;95914.63;4972736;28;24440;-71
2022/05/16 06:27:09;;;;;;;4.47;2.70;;;;;;;16.20;93.83;95933.72;4972181;28;24580;-69
2022/05/16 06:29:35;;;;;;;4.30;2.92;;;;;;;16.17;93.39;95927.91;4972387;28;24458;-73
2022/05/16 06:32:02;;;;;;;4.32;2.97;;;;;;;16.19;93.78;95926.78;4971767;28;24425;-73
2022/05/16 06:34:28;;;;;;;3.45;2.67;;;;;;;16.08;94.67;95926.84;4971652;28;24424;-74
2022/05/16 06:36:55;;;;;;;6.13;3.08;;;;;;;16.04;95.86;95927.25;4972380;28;24812;-73
2022/05/16 06:39:21;;;;;;;3.50;2.65;;;;;;;16.14;95.49;95926.34;4972098;28;25002;-73
2022/05/16 06:41:47;;;;;;;4.50;2.70;;;;;;;16.20;95.08;95933.72;4972052;28;24943;-73
2022/05/16 06:44:15;;;;;;;3.78;2.58;;;;;;;16.28;96.39;95926.97;4971764;28;24452;-73
2022/05/16 06:46:44;;;;;;;6.77;2.60;;;;;;;16.41;96.57;95932.88;4972248;28;24441;-73
2022/05/16 06:49:11;;;;;;;4.43;3.00;;;;;;;16.40;96.80;95932.03;4971386;28;24512;-73
2022/05/16 06:51:37;;;;;;;5.85;2.80;;;;;;;16.38;96.35;95935.72;4971944;28;24421;-74
2022/05/16 06:54:04;;;;;;;4.35;2.70;;;;;;;16.42;95.87;95932.72;4972050;28;24436;-76
2022/05/16 06:56:31;;;;;;;6.50;2.63;;;;;;;16.33;97.46;95938.72;4971729;28;24808;-75
2022/05/16 06:58:57;;;;;;;6.65;3.40;;;;;;;16.37;96.93;95934.91;4972348;28;25001;-74
2022/05/16 07:01:25;;;;;;;5.38;2.90;;;;;;;16.39;97.69;95934.78;4972223;28;24422;-74
2022/05/16 07:03:52;;;;;;;10.32;3.80;;;;;;;16.38;98.22;95946.19;4971830;28;24445;-73
2022/05/16 07:06:18;;;;;;;3.78;2.80;;;;;;;16.47;97.21;95942.81;4972054;28;24433;-73
2022/05/16 07:08:45;;;;;;;5.65;3.00;;;;;;;16.55;96.85;95945.63;4972083;28;24441;-73
2022/05/16 07:11:11;;;;;;;4.10;2.80;;;;;;;16.63;96.37;95945.78;4971768;28;24466;-75
2022/05/16 07:13:38;;;;;;;4.43;3.03;;;;;;;16.73;96.65;95956.31;4972149;28;24418;-73
2022/05/16 07:16:05;;;;;;;3.97;2.78;;;;;;;16.77;95.93;95955.13;4972053;28;24421;-73
2022/05/16 07:18:33;;;;;;;4.13;2.65;;;;;;;16.81;95.41;95958.31;4971886;28;24425;-76
2022/05/16 07:20:59;;;;;;;4.10;2.78;;;;;;;16.86;95.64;95956.94;4971821;28;24429;-73
2022/05/16 07:23:26;;;;;;;6.90;2.72;;;;;;;16.96;96.16;95967.47;4971099;28;24955;-74
2022/05/16 07:28:37;;;;;;;3.38;3.00;;;;;;;17.11;95.00;95963.53;4971163;28;24513;-74
2022/05/16 07:31:05;;;;;;;5.40;2.50;;;;;;;17.28;95.76;95964.72;4971276;28;24476;-74
2022/05/16 07:33:34;;;;;;;9.60;2.88;;;;;;;17.42;96.49;95968.75;4971152;28;24448;-73
2022/05/16 07:36:01;;;;;;;6.05;2.90;;;;;;;17.58;95.12;95971.69;4971509;28;24437;-73
2022/05/16 07:38:28;;;;;;;4.35;2.90;;;;;;;17.78;93.60;95966.50;4955925;28;24445;-73
2022/05/16 07:40:55;;;;;;;5.95;3.33;;;;;;;18.01;92.44;95974.94;4971514;28;24835;-75
2022/05/16 07:43:22;;;;;;;4.60;3.00;;;;;;;18.23;93.97;95976.47;4960236;28;24843;-76
2022/05/16 07:45:49;;;;;;;5.90;3.25;;;;;;;18.44;90.96;95971.91;4971620;28;25037;-76
2022/05/16 07:48:16;;;;;;;8.63;3.33;;;;;;;18.65;89.22;95971.75;4972057;28;24450;-75
2022/05/16 07:50:44;;;;;;;3.40;2.70;;;;;;;18.84;88.37;95982.22;4971701;28;24461;-75
2022/05/16 07:53:13;;;;;;;6.60;3.00;;;;;;;19.07;85.55;95976.63;4971288;28;24587;-76
2022/05/16 07:55:41;;;;;;;5.30;3.60;;;;;;;19.23;84.75;95986.53;4970831;28;24811;-76
2022/05/16 07:58:07;;;;;;;5.50;3.33;;;;;;;19.31;84.96;95989.25;4972029;28;24425;-76
2022/05/16 08:00:34;;;;;;;5.50;3.10;;;;;;;19.34;83.44;95984.53;4972411;28;24438;-75
2022/05/16 08:03:02;;;;;;;7.47;3.60;;;;;;;19.42;82.44;95990.88;4974699;28;24492;-75
2022/05/16 08:05:28;;;;;;;9.18;3.60;;;;;;;19.42;82.64;95986.44;4974876;28;24532;-76
2022/05/16 08:10:41;;;;;;;6.88;3.40;;;;;;;19.51;81.37;95990.00;4974452;28;24515;-75
2022/05/16 08:13:10;;;;;;;8.77;3.85;;;;;;;19.57;82.83;95995.47;4974631;28;24445;-75
2022/05/16 08:15:39;;;;;;;7.70;3.47;;;;;;;19.68;81.68;95998.91;4974652;28;24440;-75
2022/05/16 08:18:07;;;;;;;4.93;3.45;;;;;;;19.77;81.85;95993.63;4974583;28;24995;-75
2022/05/16 08:20:37;;;;;;;6.90;3.40;;;;;;;19.89;78.84;95993.41;4974357;28;24446;-73
2022/05/16 08:23:05;;;;;;;6.13;3.63;;;;;;;20.01;77.83;95993.03;4974544;28;24460;-73
2022/05/16 08:25:32;;;;;;;9.20;4.27;;;;;;;20.20;78.84;95993.88;4974191;28;24892;-73
2022/05/16 08:27:59;;;;;;;7.40;3.27;;;;;;;20.48;75.08;95995.44;4971806;28;24437;-73
2022/05/16 08:30:26;;;;;;;9.83;3.50;;;;;;;20.71;71.52;96001.09;4973921;28;24449;-74
2022/05/16 08:32:56;;;;;;;7.97;3.50;;;;;;;20.94;71.13;95997.94;4974081;28;24434;-73
2022/05/16 08:35:23;;;;;;;15.05;3.92;;;;;;;21.15;69.45;96006.31;4973686;28;24433;-73
2022/05/16 08:40:54;;;;;;;9.50;3.22;;;;;;;21.33;68.17;96014.19;4973850;28;24837;-74
2022/05/16 08:43:41;;;;;;;7.00;3.25;;;;;;;21.37;67.41;96015.53;4973761;28;24970;-73
2022/05/16 08:46:17;;;;;;;10.90;3.05;;;;;;;21.27;68.60;96017.41;4973847;28;24529;-74
2022/05/16 08:48:48;;;;;;;7.45;3.13;;;;;;;21.26;67.61;96018.41;4973859;28;24445;-74
2022/05/16 08:51:23;;;;;;;6.05;3.35;;;;;;;21.20;67.45;96013.75;4973718;28;25007;-73
2022/05/16 08:53:56;;;;;;;5.55;3.17;;;;;;;21.20;68.22;96017.19;4973668;28;24464;-74
2022/05/16 08:56:29;;;;;;;6.97;3.42;;;;;;;21.23;67.97;96024.78;4973852;28;25030;-73
2022/05/16 08:59:00;;;;;;;5.38;3.20;;;;;;;21.31;69.02;96031.91;4974001;28;24437;-73
2022/05/16 09:01:31;;;;;;;11.20;3.90;;;;;;;21.26;67.46;96031.56;4974582;28;24480;-74
2022/05/16 09:04:02;;;;;;;5.15;3.30;;;;;;;21.28;66.24;96040.13;4973533;28;24436;-73
2022/05/16 09:06:35;;;;;;;8.27;3.63;;;;;;;21.59;64.56;96042.31;4973114;28;24986;-73
2022/05/16 09:09:07;;;;;;;7.32;3.78;;;;;;;21.87;62.71;96049.00;4973759;28;24444;-74
2022/05/16 09:11:56;;;;;;;11.10;3.27;;;;;;;22.27;61.70;96050.13;4973106;28;24463;-73
2022/05/16 09:14:41;;;;;;;8.45;3.10;;;;;;;22.58;57.28;96047.72;4971657;28;24441;-73
2022/05/16 09:17:16;;;;;;;6.40;3.20;;;;;;;22.80;58.77;96054.16;4973272;28;24480;-73
2022/05/16 09:20:02;;;;;;;6.45;3.17;;;;;;;22.85;58.00;96054.50;4973515;28;25002;-73
2022/05/16 09:22:34;;;;;;;10.80;3.88;;;;;;;23.00;55.89;96048.59;4973276;28;24461;-73
2022/05/16 09:25:09;;;;;;;9.98;3.55;;;;;;;23.33;55.39;96052.81;4957940;28;24444;-74
2022/05/16 09:30:25;;;;;;;6.65;3.15;;;;;;;23.51;56.22;96067.63;4972822;28;24461;-74
2022/05/16 09:32:59;;;;;;;7.25;3.40;;;;;;;22.66;56.96;96081.22;4972601;28;24998;-74
2022/05/16 09:35:40;;;;;;;10.65;3.25;;;;;;;;;;4971683;28;24536;-73
2022/05/16 09:38:07;;;;;;;6.55;3.25;;;;;;;21.81;60.98;96075.19;4972718;28;24449;-72
2022/05/16 09:40:35;;;;;;;12.70;3.15;;;;;;;22.01;59.82;96081.84;4973137;28;24441;-73
2022/05/16 09:43:07;;;;;;;5.47;3.08;;;;;;;22.16;59.57;96079.47;4972017;28;24488;-73
2022/05/16 09:45:36;;;;;;;8.70;3.33;;;;;;;22.76;58.13;96076.59;4972370;28;24437;-74
2022/05/16 09:48:16;;;;;;;6.60;3.40;;;;;;;22.80;57.67;96079.72;4972570;28;24787;-75
2022/05/16 09:50:42;;;;;;;6.43;3.00;;;;;;;22.22;59.21;96081.47;4972819;28;24548;-75
2022/05/16 09:53:14;;;;;;;5.97;2.55;;;;;;;22.01;58.30;96087.13;4972614;28;24437;-75
2022/05/16 09:55:47;;;;;;;10.75;3.17;;;;;;;21.81;59.98;96091.03;4972654;28;25065;-74
2022/05/16 09:58:19;;;;;;;6.28;2.50;;;;;;;21.59;58.98;96092.38;4957287;28;24496;-74
2022/05/16 10:00:53;;;;;;;10.07;3.08;;;;;;;21.42;59.27;96092.28;4972152;28;24520;-74
2022/05/16 10:03:29;;;;;;;7.72;2.50;;;;;;;21.19;58.50;96094.56;4972479;28;24497;-74
2022/05/16 10:05:58;;;;;;;7.82;2.70;;;;;;;21.27;59.76;96102.53;4972361;28;24445;-74
2022/05/16 10:08:33;;;;;;;6.18;2.55;;;;;;;21.20;60.49;96090.13;4971989;28;24504;-74
2022/05/16 10:11:03;;;;;;;4.07;2.25;;;;;;;21.07;61.13;96103.72;4971766;28;24480;-73
2022/05/16 10:13:32;;;;;;;6.28;2.33;;;;;;;21.17;60.17;96100.97;4972422;28;24441;-73
2022/05/16 10:16:02;;;;;;;7.32;2.10;;;;;;;21.18;60.53;96108.72;4972612;28;24569;-73
2022/05/16 10:18:31;;;;;;;5.40;2.40;;;;;;;21.11;60.85;96109.50;4972445;28;24434;-73
2022/05/16 10:21:03;;;;;;;5.47;2.20;;;;;;;21.12;61.57;96114.59;4971941;28;24508;-73
2022/05/16 10:23:34;;;;;;;6.75;2.65;;;;;;;21.06;63.23;96117.00;4971198;28;24831;-72
2022/05/16 10:26:04;;;;;;;5.22;2.25;;;;;;;21.00;63.50;96115.81;4971954;28;25078;-72
2022/05/16 10:28:37;;;;;;;6.55;2.50;;;;;;;20.88;64.23;96117.06;4972268;28;25021;-74
2022/05/16 10:33:53;;;;;;;9.65;2.42;;;;;;;20.76;65.90;96119.91;4971747;28;24520;-74
2022/05/16 10:36:26;;;;;;;4.90;2.40;;;;;;;20.66;65.62;96110.44;4972068;28;24830;-74
2022/05/16 10:39:01;;;;;;;14.65;3.03;;;;;;;20.60;67.11;96127.63;4971897;28;24994;-73
2022/05/16 10:41:35;;;;;;;7.18;2.80;;;;;;;20.35;66.99;96125.69;4971773;28;24433;-74
2022/05/16 10:44:09;;;;;;;7.03;2.83;;;;;;;20.33;66.83;96136.38;4971648;28;24851;-75
2022/05/16 10:46:37;;;;;;;8.27;2.63;;;;;;;20.09;66.43;96134.28;4971159;28;24465;-76
2022/05/16 10:49:05;;;;;;;6.18;1.85;;;;;;;19.71;65.64;96132.66;4966160;28;24441;-75
2022/05/16 10:51:39;;;;;;;7.72;1.60;;;;;;;19.79;65.42;96143.25;4968543;28;24516;-75
2022/05/16 10:54:08;;;;;;;5.60;1.65;;;;;;;19.57;65.49;96145.22;4970647;28;24533;-75
2022/05/16 10:57:07;;;;;;;10.02;1.70;;;;;;;19.63;65.02;96140.44;4970143;28;21301;-75
2022/05/16 10:59:57;;;;;;;3.70;1.45;;;;;;;19.54;65.86;96150.78;4960575;28;25081;-75
2022/05/16 11:02:36;;;;;;;4.38;1.55;;;;;;;19.61;65.05;96156.28;4960297;28;24446;-75
2022/05/16 11:05:23;;;;;;;5.60;1.45;;;;;;;19.58;64.56;96160.03;4971487;28;24448;-74
2022/05/16 11:08:00;;;;;;;3.45;1.55;;;;;;;19.63;63.88;96158.81;4970376;28;24438;-75
2022/05/16 11:10:33;;;;;;;5.53;1.83;;;;;;;19.35;63.17;96161.31;4971377;28;24445;-74
2022/05/16 11:13:12;;;;;;;4.07;1.50;;;;;;;19.37;62.04;96169.06;4970970;28;24436;-74
2022/05/16 11:15:44;;;;;;;7.07;1.73;;;;;;;19.30;62.53;96174.06;4962494;28;24530;-75
2022/05/16 11:18:22;;;;;;;4.63;1.42;;;;;;;19.10;62.78;96173.25;4971594;28;25034;-74
2022/05/16 11:20:54;;;;;;;5.85;1.58;;;;;;;19.21;63.14;96180.97;4971508;28;25023;-74
2022/05/16 11:23:29;;;;;;;3.00;1.42;;;;;;;19.16;66.39;96195.47;4971383;28;24457;-74
2022/05/16 11:26:03;;;;;;;3.42;1.50;;;;;;;19.04;68.39;96200.03;4971353;28;24444;-74
2022/05/16 11:28:35;;;;;;;3.75;1.60;;;;;;;18.97;71.33;96202.38;4971252;28;24480;-74
2022/05/16 11:31:06;;;;;;;3.30;1.58;;;;;;;18.78;77.10;96205.81;4970775;28;24457;-74
2022/05/16 11:33:39;;;;;;;4.67;1.60;;;;;;;18.54;82.33;96211.44;4970799;28;25011;-75
2022/05/16 11:36:15;;;;;;;11.70;2.17;;;;;;;18.35;86.58;96206.09;4973094;28;24441;-75
2022/05/16 11:38:56;;;;;;;6.85;2.45;;;;;;;18.17;93.78;96211.16;4974996;28;24468;-74
2022/05/16 11:41:37;;;;;;;6.00;2.20;;;;;;;18.04;99.29;96187.78;4974773;28;25021;-75
2022/05/16 11:44:23;;;;;;;4.88;2.10;;;;;;;18.01;100.00;96174.94;4974913;28;24489;-73
2022/05/16 11:46:58;;;;;;;5.25;1.88;;;;;;;18.35;98.74;96162.38;4974799;28;24488;-73
2022/05/16 11:49:33;;;;;;;4.25;1.90;;;;;;;18.51;100.00;96153.97;4975524;28;24441;-75
2022/05/16 11:52:15;;;;;;;4.80;1.70;;;;;;;18.03;100.00;96151.25;4974926;28;24564;-75
2022/05/16 11:54:50;;;;;;;6.53;2.13;;;;;;;17.89;100.00;96141.94;4974346;28;24540;-74
2022/05/16 12:03:19;;;;;;;7.03;2.25;;;;;;;17.78;100.00;96116.66;4973049;28;24808;-75
2022/05/16 12:05:49;;;;;;;3.83;1.77;;;;;;;17.73;100.00;96126.69;4974536;28;24441;-74
2022/05/16 12:08:32;;;;;;;3.08;1.83;;;;;;;17.71;100.00;96130.38;4966262;28;25029;-76
2022/05/16 12:11:10;;;;;;;3.15;2.10;;;;;;;17.76;100.00;96146.56;4974575;28;24540;-75
2022/05/16 12:13:39;;;;;;;3.47;1.90;;;;;;;17.77;100.00;96154.31;4974465;28;24508;-76
2022/05/16 12:16:18;;;;;;;9.20;2.03;;;;;;;17.85;100.00;96149.25;4974742;28;24882;-75
2022/05/16 12:18:48;;;;;;;4.22;2.42;;;;;;;17.95;100.00;96157.16;4974604;28;24433;-74
2022/05/16 12:21:23;;;;;;;5.95;2.35;;;;;;;17.99;100.00;96148.06;4974558;28;24434;-75